createdAt,value
2018-04-14T00:01:13.606Z,1.20
2018-04-14T00:03:41.813Z,1.40
2018-04-14T00:06:10.037Z,0.80
2018-04-14T00:08:37.488Z,1.13
2018-04-14T00:11:04.934Z,1.00
2018-04-14T00:13:32.373Z,0.60
2018-04-14T00:15:59.823Z,0.63
2018-04-14T00:18:27.922Z,0.50
2018-04-14T00:20:55.368Z,0.83
2018-04-14T00:23:22.810Z,0.83
2018-04-14T00:25:50.258Z,0.63
2018-04-14T00:28:17.710Z,0.90
2018-04-14T00:30:45.935Z,0.80
2018-04-14T00:33:13.386Z,0.70
2018-04-14T00:35:40.844Z,0.50
2018-04-14T00:38:08.281Z,0.83
2018-04-14T00:40:35.725Z,0.70
2018-04-14T00:43:03.170Z,0.80
2018-04-14T00:45:31.382Z,0.70
2018-04-14T00:47:58.845Z,1.23
2018-04-14T00:50:26.969Z,1.30
2018-04-14T00:52:55.186Z,1.13
2018-04-14T00:55:23.678Z,1.17
2018-04-14T00:57:51.126Z,0.73
2018-04-14T01:00:18.570Z,0.90
2018-04-14T01:02:46.014Z,1.27
2018-04-14T01:05:13.466Z,0.93
2018-04-14T01:07:40.910Z,0.77
2018-04-14T01:10:09.126Z,0.83
2018-04-14T01:12:36.573Z,1.40
2018-04-14T01:15:04.142Z,1.13
2018-04-14T01:17:31.580Z,1.67
2018-04-14T01:19:59.018Z,1.23
2018-04-14T01:22:27.233Z,1.07
2018-04-14T01:24:54.823Z,0.73
2018-04-14T01:27:23.774Z,0.97
2018-04-14T01:29:51.209Z,1.40
2018-04-14T01:32:18.815Z,0.60
2018-04-14T01:34:46.267Z,0.90
2018-04-14T01:37:13.705Z,1.03
2018-04-14T01:39:41.137Z,0.87
2018-04-14T01:42:08.578Z,1.50
2018-04-14T01:44:36.801Z,1.30
2018-04-14T01:47:04.237Z,0.83
2018-04-14T01:49:31.702Z,1.03
2018-04-14T01:51:59.166Z,1.10
2018-04-14T01:54:26.618Z,1.57
2018-04-14T01:56:54.073Z,1.03
2018-04-14T01:59:21.841Z,1.50
2018-04-14T02:01:49.294Z,1.00
2018-04-14T02:04:16.754Z,1.40
2018-04-14T02:06:44.194Z,1.20
2018-04-14T02:09:11.637Z,1.37
2018-04-14T02:11:39.842Z,1.07
2018-04-14T02:14:07.286Z,1.67
2018-04-14T02:16:34.729Z,1.43
2018-04-14T02:19:02.930Z,0.90
2018-04-14T02:21:30.383Z,1.40
2018-04-14T02:23:57.817Z,1.30
2018-04-14T02:26:27.219Z,1.10
2018-04-14T02:28:55.441Z,0.80
2018-04-14T02:31:22.896Z,0.90
2018-04-14T02:33:50.360Z,1.50
2018-04-14T02:36:17.793Z,1.53
2018-04-14T02:38:45.245Z,1.33
2018-04-14T02:41:12.682Z,0.97
2018-04-14T02:43:40.134Z,1.13
2018-04-14T02:46:08.338Z,0.77
2018-04-14T02:48:35.770Z,1.40
2018-04-14T02:51:03.222Z,1.00
2018-04-14T02:53:31.426Z,1.20
2018-04-14T02:55:58.877Z,0.87
2018-04-14T02:58:26.313Z,0.90
2018-04-14T03:00:53.758Z,1.10
2018-04-14T03:03:21.969Z,1.13
2018-04-14T03:05:49.397Z,1.17
2018-04-14T03:08:17.615Z,0.77
2018-04-14T03:10:45.057Z,1.03
2018-04-14T03:13:13.329Z,1.10
2018-04-14T03:15:40.761Z,1.70
2018-04-14T03:18:08.982Z,1.50
2018-04-14T03:20:36.425Z,1.27
2018-04-14T03:23:03.877Z,1.30
2018-04-14T03:25:31.314Z,1.40
2018-04-14T03:27:58.762Z,1.43
2018-04-14T03:30:27.808Z,1.07
2018-04-14T03:32:55.245Z,0.93
2018-04-14T03:35:22.679Z,1.27
2018-04-14T03:37:51.781Z,0.83
2018-04-14T03:40:19.230Z,1.57
2018-04-14T03:42:46.729Z,1.07
2018-04-14T03:45:14.887Z,2.07
2018-04-14T03:47:42.337Z,0.50
2018-04-14T03:50:09.769Z,0.90
2018-04-14T03:52:37.221Z,0.97
2018-04-14T03:55:05.453Z,1.33
2018-04-14T03:57:33.213Z,1.90
2018-04-14T04:00:00.653Z,1.20
2018-04-14T04:02:28.100Z,1.20
2018-04-14T04:04:55.541Z,1.80
2018-04-14T04:07:23.593Z,1.20
2018-04-14T04:09:52.763Z,1.10
2018-04-14T04:12:20.208Z,1.17
2018-04-14T04:14:47.667Z,1.70
2018-04-14T04:17:15.107Z,1.23
2018-04-14T04:19:54.385Z,1.27
2018-04-14T04:22:33.757Z,1.33
2018-04-14T04:25:29.834Z,1.53
2018-04-14T04:27:57.273Z,1.27
2018-04-14T04:30:24.757Z,0.80
2018-04-14T04:32:53.701Z,2.13
2018-04-14T04:35:21.141Z,1.50
2018-04-14T04:37:48.592Z,2.30
2018-04-14T04:40:16.809Z,1.20
2018-04-14T04:42:44.271Z,2.33
2018-04-14T04:45:11.734Z,2.07
2018-04-14T04:47:39.207Z,1.77
2018-04-14T04:50:07.408Z,1.87
2018-04-14T04:52:35.622Z,0.90
2018-04-14T04:55:03.065Z,1.27
2018-04-14T04:57:30.643Z,1.20
2018-04-14T04:59:58.094Z,2.67
2018-04-14T05:02:25.541Z,1.13
2018-04-14T05:04:52.995Z,1.00
2018-04-14T05:07:20.446Z,1.33
2018-04-14T05:09:47.873Z,2.30
2018-04-14T05:12:16.107Z,2.37
2018-04-14T05:14:43.542Z,1.20
2018-04-14T05:17:10.997Z,1.47
2018-04-14T05:19:38.442Z,1.67
2018-04-14T05:22:05.894Z,1.20
2018-04-14T05:24:33.549Z,2.13
2018-04-14T05:27:01.750Z,0.90
2018-04-14T05:29:29.204Z,0.70
2018-04-14T05:31:56.650Z,0.90
2018-04-14T05:34:24.559Z,0.90
2018-04-14T05:36:52.019Z,1.57
2018-04-14T05:39:19.922Z,1.40
2018-04-14T05:41:48.138Z,1.03
2018-04-14T05:44:15.574Z,1.57
2018-04-14T05:46:43.041Z,0.70
2018-04-14T05:49:10.485Z,0.83
2018-04-14T05:51:38.290Z,1.20
2018-04-14T05:54:05.741Z,0.87
2018-04-14T05:56:33.181Z,1.40
2018-04-14T05:59:00.633Z,1.50
2018-04-14T06:01:28.090Z,0.90
2018-04-14T06:03:56.068Z,1.57
2018-04-14T06:06:23.517Z,1.37
2018-04-14T06:08:50.955Z,1.40
2018-04-14T06:11:18.410Z,1.47
2018-04-14T06:13:45.862Z,1.53
2018-04-14T06:16:13.366Z,1.80
2018-04-14T06:18:40.821Z,5.23
2018-04-14T06:21:08.263Z,5.23
2018-04-14T06:23:35.754Z,6.13
2018-04-14T06:26:03.205Z,5.40
2018-04-14T06:28:30.645Z,6.20
2018-04-14T06:30:58.089Z,6.47
2018-04-14T06:33:25.556Z,5.00
2018-04-14T06:35:53.014Z,4.63
2018-04-14T06:38:21.891Z,4.40
2018-04-14T06:46:35.312Z,5.00
2018-04-14T06:49:02.750Z,4.97
2018-04-14T06:51:30.208Z,4.60
2018-04-14T06:53:57.650Z,4.40
2018-04-14T06:56:25.114Z,3.30
2018-04-14T06:58:52.553Z,4.60
2018-04-14T07:01:20.010Z,4.50
2018-04-14T07:03:47.454Z,4.00
2018-04-14T07:06:14.911Z,3.70
2018-04-14T07:08:42.368Z,3.23
2018-04-14T07:11:09.801Z,3.93
2018-04-14T07:13:37.260Z,3.90
2018-04-14T07:16:05.459Z,4.13
2018-04-14T07:18:32.898Z,4.47
2018-04-14T07:21:00.357Z,4.20
2018-04-14T07:23:27.797Z,6.93
2018-04-14T07:25:56.027Z,5.53
2018-04-14T07:28:23.753Z,4.90
2018-04-14T07:30:51.209Z,4.37
2018-04-14T07:33:18.658Z,4.27
2018-04-14T07:35:46.110Z,5.30
2018-04-14T07:38:14.594Z,4.60
2018-04-14T07:40:42.042Z,5.20
2018-04-14T07:43:10.382Z,4.17
2018-04-14T07:45:37.834Z,4.57
2018-04-14T07:48:05.278Z,3.70
2018-04-14T07:50:32.737Z,3.77
2018-04-14T07:53:00.177Z,2.70
2018-04-14T07:55:27.630Z,2.40
2018-04-14T07:57:55.082Z,2.60
2018-04-14T08:00:22.526Z,2.40
2018-04-14T08:02:50.002Z,2.37
2018-04-14T08:05:17.446Z,2.10
2018-04-14T08:07:44.887Z,2.17
2018-04-14T08:10:13.101Z,2.30
2018-04-14T08:12:40.557Z,2.20
2018-04-14T08:15:08.010Z,1.70
2018-04-14T08:17:35.470Z,1.93
2018-04-14T08:20:03.774Z,1.43
2018-04-14T08:22:32.043Z,1.93
2018-04-14T08:24:59.485Z,1.73
2018-04-14T08:27:26.953Z,2.07
2018-04-14T08:29:54.398Z,1.97
2018-04-14T08:32:21.851Z,2.33
2018-04-14T08:34:49.301Z,2.37
2018-04-14T08:37:16.898Z,1.57
2018-04-14T08:39:44.598Z,1.70
2018-04-14T08:42:12.801Z,2.60
2018-04-14T08:44:40.256Z,2.23
2018-04-14T08:47:08.669Z,1.77
2018-04-14T08:49:36.116Z,1.80
2018-04-14T08:52:03.554Z,1.40
2018-04-14T08:54:31.005Z,1.50
2018-04-14T08:56:58.456Z,1.47
2018-04-14T08:59:25.918Z,1.30
2018-04-14T09:01:53.669Z,1.40
2018-04-14T09:04:21.104Z,1.30
2018-04-14T09:06:49.639Z,1.50
2018-04-14T09:09:17.078Z,0.90
2018-04-14T09:11:44.517Z,1.00
2018-04-14T09:14:11.963Z,1.20
2018-04-14T09:16:40.170Z,0.93
2018-04-14T09:19:07.625Z,1.20
2018-04-14T09:21:35.066Z,1.33
2018-04-14T09:24:02.543Z,1.03
2018-04-14T09:26:30.046Z,1.10
2018-04-14T09:28:58.177Z,1.40
2018-04-14T09:31:25.633Z,1.10
2018-04-14T09:33:53.094Z,0.80
2018-04-14T09:36:20.532Z,0.80
2018-04-14T09:38:47.995Z,1.17
2018-04-14T09:41:15.453Z,1.30
2018-04-14T09:43:42.999Z,1.27
2018-04-14T09:46:10.434Z,1.40
2018-04-14T09:48:38.643Z,0.90
2018-04-14T09:51:06.101Z,1.00
2018-04-14T09:53:33.553Z,1.17
2018-04-14T09:56:01.753Z,0.70
2018-04-14T09:58:30.373Z,0.90
2018-04-14T10:01:01.558Z,0.90
2018-04-14T10:03:29.023Z,0.90
2018-04-14T10:05:56.459Z,0.80
2018-04-14T10:08:23.906Z,0.80
2018-04-14T10:10:51.352Z,1.37
2018-04-14T10:13:19.903Z,0.83
2018-04-14T10:15:48.229Z,1.33
2018-04-14T10:18:15.677Z,1.20
2018-04-14T10:20:43.137Z,1.00
2018-04-14T10:23:11.359Z,1.30
2018-04-14T10:25:38.790Z,0.80
2018-04-14T10:28:06.247Z,0.70
2018-04-14T10:30:33.714Z,0.80
2018-04-14T10:33:01.157Z,0.80
2018-04-14T10:35:28.620Z,1.00
2018-04-14T10:37:56.122Z,0.80
2018-04-14T10:40:23.497Z,0.60
2018-04-14T10:42:51.718Z,1.00
2018-04-14T10:45:19.182Z,0.80
2018-04-14T10:47:46.621Z,0.80
2018-04-14T10:50:14.065Z,0.63
2018-04-14T10:52:41.517Z,0.70
2018-04-14T10:55:08.957Z,0.70
2018-04-14T10:57:37.177Z,0.63
2018-04-14T11:00:04.621Z,0.67
2018-04-14T11:02:32.083Z,0.70
2018-04-14T11:04:59.531Z,0.63
2018-04-14T11:07:26.966Z,0.57
2018-04-14T11:09:55.195Z,0.60
2018-04-14T11:12:22.634Z,0.53
2018-04-14T11:14:50.101Z,0.60
2018-04-14T11:17:17.547Z,0.97
2018-04-14T11:19:44.991Z,0.73
2018-04-14T11:22:12.455Z,0.63
2018-04-14T11:24:39.910Z,0.87
2018-04-14T11:27:07.346Z,1.40
2018-04-14T11:29:34.803Z,0.83
2018-04-14T11:32:02.263Z,0.70
2018-04-14T11:34:29.717Z,0.80
2018-04-14T11:36:57.154Z,0.80
2018-04-14T11:39:25.857Z,0.60
2018-04-14T11:41:53.306Z,0.70
2018-04-14T11:44:21.519Z,0.60
2018-04-14T11:46:49.407Z,0.60
2018-04-14T11:49:16.846Z,0.70
2018-04-14T11:51:44.336Z,0.90
2018-04-14T11:54:11.801Z,0.90
2018-04-14T11:56:39.242Z,1.67
2018-04-14T11:59:06.685Z,1.20
2018-04-14T12:01:34.138Z,1.00
2018-04-14T12:04:01.582Z,0.70
2018-04-14T12:06:29.865Z,0.80
2018-04-14T12:08:57.308Z,1.03
2018-04-14T12:11:24.770Z,0.90
2018-04-14T12:13:52.223Z,1.00
2018-04-14T12:16:19.681Z,1.17
2018-04-14T12:18:47.126Z,1.00
2018-04-14T12:21:14.574Z,0.87
2018-04-14T12:23:42.017Z,1.23
2018-04-14T12:26:10.240Z,1.20
2018-04-14T12:28:37.683Z,1.50
2018-04-14T12:31:05.138Z,1.57
2018-04-14T12:33:32.587Z,0.70
2018-04-14T12:36:00.026Z,1.00
2018-04-14T12:38:28.241Z,1.70
2018-04-14T12:40:55.706Z,1.50
2018-04-14T12:43:23.250Z,2.00
2018-04-14T12:45:50.699Z,1.43
2018-04-14T12:48:18.143Z,1.67
2018-04-14T12:50:45.601Z,1.70
2018-04-14T12:53:13.058Z,2.23
2018-04-14T12:55:40.497Z,3.00
2018-04-14T12:58:08.715Z,2.20
2018-04-14T13:00:36.157Z,2.10
2018-04-14T13:03:03.662Z,1.90
2018-04-14T13:05:31.106Z,2.00
2018-04-14T13:07:58.573Z,1.63
2018-04-14T13:10:26.110Z,1.50
2018-04-14T13:12:53.549Z,1.10
2018-04-14T13:15:21.258Z,1.10
2018-04-14T13:17:48.690Z,1.13
2018-04-14T13:20:16.154Z,1.20
2018-04-14T13:22:43.591Z,1.30
2018-04-14T13:25:11.038Z,0.80
2018-04-14T13:27:38.490Z,0.80
2018-04-14T13:30:05.948Z,1.00
2018-04-14T13:32:33.409Z,1.10
2018-04-14T13:35:00.873Z,1.43
2018-04-14T13:37:28.309Z,1.20
2018-04-14T13:39:55.753Z,1.47
2018-04-14T13:42:23.210Z,1.03
2018-04-14T13:44:51.421Z,1.20
2018-04-14T13:47:18.894Z,1.27
2018-04-14T13:49:46.874Z,1.30
2018-04-14T13:52:14.318Z,1.70
2018-04-14T13:54:41.765Z,1.50
2018-04-14T13:57:09.673Z,1.70
2018-04-14T13:59:37.909Z,2.13
2018-04-14T14:02:05.349Z,2.10
2018-04-14T14:04:32.789Z,1.80
2018-04-14T14:07:00.238Z,2.33
2018-04-14T14:09:27.687Z,2.37
2018-04-14T14:11:55.914Z,2.40
2018-04-14T14:14:23.357Z,2.70
2018-04-14T14:16:50.954Z,2.90
2018-04-14T14:19:18.421Z,2.67
2018-04-14T14:21:45.861Z,2.87
2018-04-14T14:24:13.298Z,2.60
2018-04-14T14:26:40.750Z,2.90
2018-04-14T14:29:08.193Z,3.40
2018-04-14T14:31:35.634Z,2.80
2018-04-14T14:34:03.086Z,3.07
2018-04-14T14:36:30.523Z,3.00
2018-04-14T14:38:58.737Z,3.33
2018-04-14T14:41:26.188Z,3.60
2018-04-14T14:43:53.653Z,3.20
2018-04-14T14:46:21.090Z,3.10
2018-04-14T14:48:48.530Z,3.57
2018-04-14T14:51:16.749Z,3.60
2018-04-14T14:53:44.198Z,3.33
2018-04-14T14:56:11.653Z,3.20
2018-04-14T14:58:39.115Z,3.50
2018-04-14T15:01:06.569Z,3.17
2018-04-14T15:03:34.019Z,2.93
2018-04-14T15:06:02.766Z,2.90
2018-04-14T15:08:30.206Z,3.23
2018-04-14T15:10:57.653Z,2.50
2018-04-14T15:13:25.113Z,2.73
2018-04-14T15:15:52.572Z,3.03
2018-04-14T15:18:20.038Z,2.80
2018-04-14T15:20:47.518Z,2.60
2018-04-14T15:23:14.961Z,2.33
2018-04-14T15:25:42.414Z,1.83
2018-04-14T15:28:09.858Z,2.03
2018-04-14T15:30:37.309Z,3.97
2018-04-14T15:33:04.750Z,3.20
2018-04-14T15:35:32.203Z,3.50
2018-04-14T15:37:59.651Z,2.37
2018-04-14T15:40:27.118Z,2.50
2018-04-14T15:42:54.565Z,3.10
2018-04-14T15:45:22.007Z,2.47
2018-04-14T15:47:49.458Z,2.50
2018-04-14T15:50:16.901Z,2.40
2018-04-14T15:52:45.126Z,2.47
2018-04-14T15:55:12.566Z,2.33
2018-04-14T15:57:40.469Z,2.40
2018-04-14T16:00:07.914Z,2.37
2018-04-14T16:02:35.434Z,2.37
2018-04-14T16:05:03.486Z,2.40
2018-04-14T16:07:31.702Z,3.87
2018-04-14T16:09:59.162Z,1.50
2018-04-14T16:12:26.710Z,1.50
2018-04-14T16:14:54.150Z,1.70
2018-04-14T16:17:21.601Z,1.80
2018-04-14T16:19:49.062Z,2.50
2018-04-14T16:22:16.501Z,2.00
2018-04-14T16:24:44.721Z,1.90
2018-04-14T16:27:12.173Z,1.60
2018-04-14T16:29:39.614Z,1.63
2018-04-14T16:32:07.066Z,2.00
2018-04-14T16:34:34.515Z,2.03
2018-04-14T16:37:02.738Z,3.10
2018-04-14T16:39:30.962Z,3.50
2018-04-14T16:41:59.167Z,3.07
2018-04-14T16:44:26.949Z,2.77
2018-04-14T16:46:54.398Z,2.50
2018-04-14T16:49:21.879Z,2.80
2018-04-14T16:51:49.298Z,2.30
2018-04-14T16:54:16.757Z,2.50
2018-04-14T16:56:44.549Z,2.60
2018-04-14T16:59:12.025Z,2.67
2018-04-14T17:01:39.918Z,2.77
2018-04-14T17:04:09.040Z,2.40
2018-04-14T17:06:36.492Z,2.20
2018-04-14T17:09:03.933Z,1.60
2018-04-14T17:11:31.387Z,2.20
2018-04-14T17:13:59.595Z,2.07
2018-04-14T17:16:27.046Z,2.17
2018-04-14T17:18:54.544Z,1.90
2018-04-14T17:21:21.940Z,2.07
2018-04-14T17:23:49.391Z,2.60
2018-04-14T17:26:16.841Z,2.30
2018-04-14T17:28:45.078Z,2.37
2018-04-14T17:31:12.538Z,2.17
2018-04-14T17:33:39.980Z,2.13
2018-04-14T17:36:07.430Z,2.30
2018-04-14T17:38:34.871Z,1.53
2018-04-14T17:41:02.327Z,2.20
2018-04-14T17:43:29.765Z,1.87
2018-04-14T17:45:57.589Z,1.90
2018-04-14T17:48:25.071Z,2.20
2018-04-14T17:50:53.282Z,1.93
2018-04-14T17:53:20.735Z,2.30
2018-04-14T17:55:48.185Z,2.00
2018-04-14T17:58:15.634Z,2.10
2018-04-14T18:00:43.077Z,2.17
2018-04-14T18:03:10.526Z,1.63
2018-04-14T18:05:38.969Z,2.10
2018-04-14T18:08:06.414Z,2.13
2018-04-14T18:10:33.863Z,2.23
2018-04-14T18:13:01.323Z,1.93
2018-04-14T18:15:28.762Z,2.30
2018-04-14T18:17:56.777Z,2.00
2018-04-14T18:20:24.235Z,1.80
2018-04-14T18:22:51.690Z,2.00
2018-04-14T18:25:19.782Z,2.07
2018-04-14T18:27:47.223Z,2.00
2018-04-14T18:30:15.089Z,1.93
2018-04-14T18:32:42.998Z,1.67
2018-04-14T18:35:10.442Z,2.00
2018-04-14T18:37:37.886Z,2.33
2018-04-14T18:40:05.327Z,2.07
2018-04-14T18:42:32.798Z,2.20
2018-04-14T18:45:00.252Z,2.07
2018-04-14T18:47:27.694Z,2.10
2018-04-14T18:49:55.142Z,1.93
2018-04-14T18:52:22.587Z,2.37
2018-04-14T18:54:50.054Z,2.27
2018-04-14T18:57:17.821Z,2.43
2018-04-14T18:59:45.265Z,2.30
2018-04-14T19:02:12.722Z,1.90
2018-04-14T19:04:40.167Z,1.63
2018-04-14T19:07:07.630Z,2.20
2018-04-14T19:09:35.084Z,2.50
2018-04-14T19:12:02.525Z,1.40
2018-04-14T19:14:29.970Z,1.90
2018-04-14T19:16:57.425Z,2.07
2018-04-14T19:19:24.869Z,1.70
2018-04-14T19:21:53.086Z,1.67
2018-04-14T19:24:20.546Z,1.77
2018-04-14T19:26:47.986Z,2.00
2018-04-14T19:29:15.438Z,1.87
2018-04-14T19:31:42.886Z,1.73
2018-04-14T19:34:11.105Z,1.97
2018-04-14T19:36:38.553Z,2.10
2018-04-14T19:39:06.063Z,2.17
2018-04-14T19:41:34.273Z,1.50
2018-04-14T19:44:02.514Z,2.03
2018-04-14T19:46:30.733Z,1.90
2018-04-14T19:48:58.186Z,2.00
2018-04-14T19:51:25.658Z,2.27
2018-04-14T19:53:53.107Z,2.10
2018-04-14T19:56:20.691Z,2.47
2018-04-14T19:58:48.130Z,1.80
2018-04-14T20:01:15.573Z,2.03
2018-04-14T20:03:43.802Z,1.70
2018-04-14T20:06:12.010Z,1.90
2018-04-14T20:08:39.474Z,2.20
2018-04-14T20:11:06.919Z,3.00
2018-04-14T20:13:34.370Z,3.57
2018-04-14T20:16:01.812Z,2.80
2018-04-14T20:18:30.038Z,2.43
2018-04-14T20:20:57.482Z,2.90
2018-04-14T20:23:24.932Z,2.13
2018-04-14T20:25:52.385Z,2.20
2018-04-14T20:28:19.843Z,2.40
2018-04-14T20:30:47.282Z,2.40
2018-04-14T20:33:14.737Z,2.73
2018-04-14T20:35:42.954Z,3.20
2018-04-14T20:38:10.412Z,3.30
2018-04-14T20:40:37.902Z,3.30
2018-04-14T20:43:05.385Z,4.03
2018-04-14T20:45:33.673Z,3.03
2018-04-14T20:48:01.738Z,2.20
2018-04-14T20:50:29.942Z,3.83
2018-04-14T20:52:57.410Z,3.60
2018-04-14T20:55:24.891Z,3.30
2018-04-14T20:57:52.321Z,3.03
2018-04-14T21:00:19.782Z,3.70
2018-04-14T21:02:47.234Z,2.80
2018-04-14T21:05:15.433Z,1.70
2018-04-14T21:07:42.870Z,1.60
2018-04-14T21:10:10.322Z,2.77
2018-04-14T21:12:37.809Z,2.60
2018-04-14T21:15:05.264Z,2.40
2018-04-14T21:17:33.145Z,2.40
2018-04-14T21:20:01.378Z,3.37
2018-04-14T21:22:28.836Z,3.83
2018-04-14T21:24:56.278Z,3.40
2018-04-14T21:27:23.724Z,3.37
2018-04-14T21:29:51.180Z,3.00
2018-04-14T21:32:18.626Z,3.57
2018-04-14T21:34:46.090Z,3.40
2018-04-14T21:37:13.530Z,3.07
2018-04-14T21:39:41.755Z,2.80
2018-04-14T21:42:09.197Z,2.53
2018-04-14T21:44:36.659Z,2.70
2018-04-14T21:47:04.415Z,2.67
2018-04-14T21:49:31.862Z,2.93
2018-04-14T21:51:59.314Z,3.17
2018-04-14T21:54:26.765Z,2.60
2018-04-14T21:56:54.204Z,2.30
2018-04-14T21:59:22.481Z,2.70
2018-04-14T22:01:50.721Z,2.63
2018-04-14T22:04:18.179Z,3.20
2018-04-14T22:06:45.637Z,3.50
2018-04-14T22:09:13.848Z,3.13
2018-04-14T22:11:42.054Z,2.40
2018-04-14T22:14:09.535Z,2.70
2018-04-14T22:16:36.982Z,3.00
2018-04-14T22:19:04.974Z,2.30
2018-04-14T22:21:33.182Z,3.13
2018-04-14T22:24:01.399Z,2.80
2018-04-14T22:26:28.845Z,2.50
2018-04-14T22:28:56.715Z,3.20
2018-04-14T22:31:24.164Z,2.80
2018-04-14T22:33:51.605Z,3.50
2018-04-14T22:36:19.590Z,3.57
2018-04-14T22:38:47.047Z,3.40
2018-04-14T22:41:14.494Z,3.40
2018-04-14T22:43:41.945Z,3.10
2018-04-14T22:46:09.397Z,3.73
2018-04-14T22:48:37.010Z,3.53
2018-04-14T22:51:04.483Z,3.40
2018-04-14T22:53:31.919Z,2.97
2018-04-14T22:55:59.373Z,3.40
2018-04-14T22:58:26.817Z,3.10
2018-04-14T23:00:54.291Z,3.37
2018-04-14T23:03:21.743Z,3.40
2018-04-14T23:05:49.178Z,2.90
2018-04-14T23:08:16.644Z,3.47
2018-04-14T23:10:44.090Z,3.30
2018-04-14T23:13:11.534Z,3.30
2018-04-14T23:15:39.013Z,3.13
2018-04-14T23:18:06.450Z,3.33
2018-04-14T23:20:33.898Z,2.93
2018-04-14T23:23:01.403Z,2.87
2018-04-14T23:25:28.842Z,4.87
2018-04-14T23:27:56.301Z,5.63
2018-04-14T23:30:23.750Z,5.43
2018-04-14T23:32:51.208Z,5.97
2018-04-14T23:35:18.657Z,4.73
2018-04-14T23:37:46.113Z,5.50
2018-04-14T23:40:13.905Z,5.73
2018-04-14T23:42:41.349Z,5.50
2018-04-14T23:45:08.794Z,5.00
2018-04-14T23:47:36.577Z,5.30
2018-04-14T23:50:04.459Z,6.63
2018-04-14T23:52:31.906Z,4.73
2018-04-14T23:54:59.358Z,4.80
2018-04-14T23:57:26.805Z,4.33
2018-04-14T23:59:54.261Z,4.97
